createdAt,value
2022-10-06T00:00:04.378Z,14.88
2022-10-06T00:03:06.241Z,14.28
2022-10-06T00:06:08.323Z,14.87
2022-10-06T00:09:10.157Z,15.55
2022-10-06T00:12:12.156Z,14.95
2022-10-06T00:15:16.079Z,14.27
2022-10-06T00:18:17.921Z,15.23
2022-10-06T00:21:19.976Z,14.20
2022-10-06T00:24:21.756Z,14.88
2022-10-06T00:27:23.609Z,14.84
2022-10-06T00:30:26.197Z,14.73
2022-10-06T00:33:28.029Z,14.46
2022-10-06T00:36:29.829Z,14.39
2022-10-06T00:39:31.659Z,14.27
2022-10-06T00:42:33.678Z,14.49
2022-10-06T00:45:38.629Z,15.16
2022-10-06T00:48:40.443Z,15.24
2022-10-06T00:51:45.177Z,14.54
2022-10-06T00:54:46.981Z,14.02
2022-10-06T00:57:48.869Z,13.83
2022-10-06T01:00:54.141Z,14.00
2022-10-06T01:03:57.772Z,14.59
2022-10-06T01:06:59.616Z,13.83
2022-10-06T01:10:01.463Z,14.00
2022-10-06T01:13:03.341Z,13.59
2022-10-06T01:16:11.147Z,13.24
2022-10-06T01:19:43.212Z,13.38
2022-10-06T01:22:45.904Z,13.27
2022-10-06T01:25:47.699Z,13.97
2022-10-06T01:28:49.739Z,13.80
2022-10-06T01:31:51.559Z,13.86
2022-10-06T01:34:53.384Z,14.13
2022-10-06T01:37:58.725Z,14.41
2022-10-06T01:41:00.590Z,14.06
2022-10-06T01:44:02.520Z,13.90
2022-10-06T01:47:04.957Z,14.47
2022-10-06T01:50:08.128Z,14.69
2022-10-06T01:53:10.304Z,14.32
2022-10-06T01:56:12.216Z,13.99
2022-10-06T01:59:14.130Z,14.42
2022-10-06T02:02:15.965Z,14.14
2022-10-06T02:05:17.977Z,13.97
2022-10-06T02:08:19.762Z,14.46
2022-10-06T02:11:21.598Z,14.28
2022-10-06T02:14:23.484Z,13.58
2022-10-06T02:17:25.284Z,13.57
2022-10-06T02:20:27.247Z,13.23
2022-10-06T02:23:29.834Z,13.77
2022-10-06T02:26:32.201Z,13.78
2022-10-06T02:29:34.257Z,14.13
2022-10-06T02:32:36.781Z,13.92
2022-10-06T02:35:38.614Z,13.61
2022-10-06T02:38:41.772Z,13.65
2022-10-06T02:41:43.598Z,13.97
2022-10-06T02:44:45.384Z,13.58
2022-10-06T02:47:47.206Z,13.11
2022-10-06T02:50:55.242Z,12.35
2022-10-06T02:53:57.065Z,12.39
2022-10-06T02:56:58.898Z,13.16
2022-10-06T03:00:00.729Z,13.11
2022-10-06T03:03:02.629Z,12.82
2022-10-06T03:06:05.834Z,13.27
2022-10-06T03:09:08.305Z,13.15
2022-10-06T03:12:10.159Z,12.82
2022-10-06T03:15:11.985Z,12.79
2022-10-06T03:18:13.836Z,12.29
2022-10-06T03:21:16.196Z,13.04
2022-10-06T03:24:18.128Z,12.70
2022-10-06T03:27:19.979Z,12.96
2022-10-06T03:30:21.922Z,12.87
2022-10-06T03:33:23.763Z,12.31
2022-10-06T03:36:26.801Z,12.35
2022-10-06T03:39:28.696Z,12.92
2022-10-06T03:42:32.376Z,13.52
2022-10-06T03:45:34.842Z,12.51
2022-10-06T03:48:36.632Z,12.86
2022-10-06T03:51:39.874Z,12.96
2022-10-06T03:54:41.728Z,12.48
2022-10-06T03:57:43.647Z,12.59
2022-10-06T04:00:48.706Z,12.42
2022-10-06T04:03:50.901Z,12.55
2022-10-06T04:06:52.726Z,12.86
2022-10-06T04:09:54.573Z,12.30
2022-10-06T04:12:56.348Z,12.51
2022-10-06T04:15:58.255Z,12.29
2022-10-06T04:19:04.703Z,13.21
2022-10-06T04:22:06.682Z,12.98
2022-10-06T04:25:08.641Z,12.95
2022-10-06T04:28:10.817Z,13.23
2022-10-06T04:31:16.942Z,12.86
2022-10-06T04:34:18.804Z,12.08
2022-10-06T04:37:20.989Z,12.83
2022-10-06T04:40:22.816Z,13.63
2022-10-06T04:43:25.052Z,13.65
2022-10-06T04:46:44.095Z,13.13
2022-10-06T04:49:46.697Z,13.34
2022-10-06T04:52:48.535Z,13.35
2022-10-06T04:56:10.485Z,13.23
2022-10-06T04:59:12.307Z,12.92
2022-10-06T05:02:14.174Z,12.47
2022-10-06T05:05:16.082Z,12.68
2022-10-06T05:08:18.135Z,12.92
2022-10-06T05:11:23.667Z,12.61
2022-10-06T05:14:27.586Z,12.42
2022-10-06T05:17:29.448Z,12.43
2022-10-06T05:20:31.411Z,12.33
2022-10-06T05:23:34.382Z,12.29
2022-10-06T05:26:36.753Z,12.39
2022-10-06T05:29:39.460Z,12.72
2022-10-06T05:32:41.295Z,12.64
2022-10-06T05:35:50.603Z,13.09
2022-10-06T05:38:52.809Z,14.17
2022-10-06T05:41:56.964Z,15.27
2022-10-06T05:44:58.836Z,15.53
2022-10-06T05:48:00.661Z,14.48
2022-10-06T05:51:03.915Z,16.07
2022-10-06T05:54:06.032Z,17.77
2022-10-06T05:57:08.288Z,16.61
2022-10-06T06:00:10.443Z,16.14
2022-10-06T06:03:12.290Z,17.27
2022-10-06T06:06:18.964Z,15.27
2022-10-06T06:09:21.422Z,16.62
2022-10-06T06:12:23.253Z,15.74
2022-10-06T06:15:43.759Z,14.38
2022-10-06T06:18:46.102Z,14.55
2022-10-06T06:21:48.143Z,13.70
2022-10-06T06:24:50.005Z,13.62
2022-10-06T06:27:54.167Z,14.05
2022-10-06T06:31:03.003Z,13.99
2022-10-06T06:34:06.609Z,13.63
2022-10-06T06:37:15.047Z,13.95
2022-10-06T06:40:17.338Z,14.97
2022-10-06T06:43:19.280Z,14.51
2022-10-06T06:46:25.185Z,14.16
2022-10-06T06:49:29.590Z,14.29
2022-10-06T06:52:32.395Z,15.38
2022-10-06T06:55:34.455Z,15.08
2022-10-06T06:58:36.615Z,15.36
2022-10-06T07:01:47.537Z,15.41
2022-10-06T07:04:49.451Z,13.75
2022-10-06T07:07:51.552Z,14.90
2022-10-06T07:10:55.353Z,16.44
2022-10-06T07:13:58.312Z,17.16
2022-10-06T07:17:18.995Z,16.18
2022-10-06T07:20:39.865Z,16.56
2022-10-06T07:24:00.330Z,17.30
2022-10-06T07:27:02.269Z,19.61
2022-10-06T07:30:04.718Z,19.59
2022-10-06T07:33:09.072Z,20.03
2022-10-06T07:36:11.385Z,21.07
2022-10-06T07:39:13.945Z,19.90
2022-10-06T07:42:17.224Z,21.07
2022-10-06T07:45:39.219Z,19.41
2022-10-06T07:48:41.478Z,18.57
2022-10-06T07:51:44.020Z,18.16
2022-10-06T07:54:46.080Z,17.37
2022-10-06T07:57:50.982Z,17.09
2022-10-06T08:00:53.187Z,17.95
2022-10-06T08:03:55.201Z,17.53
2022-10-06T08:06:58.676Z,16.57
2022-10-06T08:10:02.225Z,17.01
2022-10-06T08:13:05.222Z,17.32
2022-10-06T08:16:08.633Z,16.24
2022-10-06T08:19:11.835Z,16.38
2022-10-06T08:22:16.135Z,15.67
2022-10-06T08:25:18.156Z,16.08
2022-10-06T08:28:20.671Z,15.82
2022-10-06T08:31:22.842Z,15.78
2022-10-06T08:34:24.963Z,16.40
2022-10-06T08:37:27.505Z,16.29
2022-10-06T08:40:31.619Z,16.27
2022-10-06T08:43:33.569Z,17.77
2022-10-06T08:46:46.893Z,16.49
2022-10-06T08:49:49.595Z,16.47
2022-10-06T08:53:01.562Z,17.80
2022-10-06T08:56:08.391Z,18.39
2022-10-06T08:59:10.681Z,18.28
2022-10-06T09:02:16.615Z,17.82
2022-10-06T09:05:25.345Z,19.15
2022-10-06T09:08:47.618Z,18.77
2022-10-06T09:12:11.600Z,17.36
2022-10-06T09:15:19.630Z,17.65
2022-10-06T09:18:23.731Z,18.15
2022-10-06T09:21:35.372Z,17.99
2022-10-06T09:24:47.516Z,19.33
2022-10-06T09:27:53.368Z,19.74
2022-10-06T09:30:55.557Z,19.60
2022-10-06T09:34:24.598Z,19.44
2022-10-06T09:37:27.012Z,19.59
2022-10-06T09:40:32.002Z,20.15
2022-10-06T09:43:33.830Z,23.21
2022-10-06T09:46:39.847Z,23.66
2022-10-06T09:49:42.986Z,23.51
2022-10-06T09:53:06.379Z,22.73
2022-10-06T09:56:21.449Z,24.52
2022-10-06T09:59:30.147Z,24.49
2022-10-06T10:02:42.787Z,25.16
2022-10-06T10:05:54.785Z,24.38
2022-10-06T10:09:17.837Z,23.60
2022-10-06T10:12:28.502Z,25.37
2022-10-06T10:15:32.647Z,25.17
2022-10-06T10:18:36.257Z,25.24
2022-10-06T10:21:39.913Z,22.89
2022-10-06T10:24:57.670Z,23.39
2022-10-06T10:28:26.062Z,22.48
2022-10-06T10:31:34.460Z,22.98
2022-10-06T10:34:50.218Z,23.98
2022-10-06T10:38:01.584Z,25.67
2022-10-06T10:41:17.092Z,23.45
2022-10-06T10:44:29.932Z,23.97
2022-10-06T10:47:34.601Z,23.40
2022-10-06T10:50:42.527Z,23.11
2022-10-06T10:53:44.467Z,22.82
2022-10-06T10:56:49.339Z,22.36
2022-10-06T11:00:02.647Z,22.57
2022-10-06T11:03:04.701Z,23.67
2022-10-06T11:06:16.127Z,23.39
2022-10-06T11:09:18.973Z,23.90
2022-10-06T11:12:24.904Z,23.78
2022-10-06T11:15:35.974Z,23.20
2022-10-06T11:18:37.740Z,23.27
2022-10-06T11:21:41.983Z,23.34
2022-10-06T11:24:53.402Z,22.24
2022-10-06T11:28:04.664Z,21.65
2022-10-06T11:31:21.815Z,21.51
2022-10-06T11:34:24.976Z,23.13
2022-10-06T11:37:32.818Z,22.76
2022-10-06T11:40:53.591Z,22.55
2022-10-06T11:44:15.810Z,22.42
2022-10-06T11:47:35.001Z,22.64
2022-10-06T11:50:42.854Z,23.47
2022-10-06T11:53:44.956Z,22.54
2022-10-06T11:56:46.801Z,23.90
2022-10-06T11:59:54.758Z,22.89
2022-10-06T12:02:56.751Z,23.35
2022-10-06T12:05:58.745Z,23.52
2022-10-06T12:09:01.950Z,22.70
2022-10-06T12:12:17.881Z,22.81
2022-10-06T12:19:28.900Z,22.54
2022-10-06T12:22:32.181Z,23.08
2022-10-06T12:25:52.983Z,23.39
2022-10-06T12:29:18.534Z,22.99
2022-10-06T12:32:39.284Z,23.94
2022-10-06T12:35:41.132Z,24.00
2022-10-06T12:38:43.962Z,24.20
2022-10-06T12:41:59.406Z,23.75
2022-10-06T12:45:01.740Z,23.71
2022-10-06T12:48:04.009Z,22.61
2022-10-06T12:51:05.902Z,23.77
2022-10-06T12:54:19.755Z,23.67
2022-10-06T12:57:23.347Z,24.16
2022-10-06T13:00:28.016Z,24.94
2022-10-06T13:03:29.920Z,23.62
2022-10-06T13:06:31.861Z,23.30
2022-10-06T13:09:34.526Z,24.57
2022-10-06T13:12:39.650Z,25.18
2022-10-06T13:15:42.628Z,25.13
2022-10-06T13:18:44.417Z,26.00
2022-10-06T13:21:46.286Z,26.76
2022-10-06T13:24:48.174Z,28.93
2022-10-06T13:27:50.921Z,31.71
2022-10-06T13:30:53.819Z,31.98
2022-10-06T13:34:11.680Z,32.74
2022-10-06T13:37:14.590Z,30.86
2022-10-06T13:40:21.896Z,28.52
2022-10-06T13:43:29.536Z,25.56
2022-10-06T13:46:32.409Z,26.11
2022-10-06T13:49:36.580Z,25.97
2022-10-06T13:52:39.132Z,24.85
2022-10-06T13:55:41.251Z,25.64
2022-10-06T13:58:45.415Z,25.18
2022-10-06T14:01:47.870Z,24.26
2022-10-06T14:05:08.307Z,24.60
2022-10-06T14:08:10.583Z,24.50
2022-10-06T14:14:15.239Z,24.52
2022-10-06T14:17:23.873Z,24.69
2022-10-06T14:20:41.514Z,23.66
2022-10-06T14:23:44.567Z,23.27
2022-10-06T14:26:47.030Z,23.57
2022-10-06T14:29:48.940Z,24.28
2022-10-06T14:32:50.896Z,23.38
2022-10-06T14:35:52.919Z,23.37
2022-10-06T14:38:55.425Z,23.40
2022-10-06T14:41:57.922Z,23.24
2022-10-06T14:45:00.262Z,23.15
2022-10-06T14:48:04.434Z,23.21
2022-10-06T14:51:06.832Z,23.62
2022-10-06T14:54:10.794Z,23.02
2022-10-06T14:57:13.395Z,22.81
2022-10-06T15:00:15.385Z,22.59
2022-10-06T15:03:17.305Z,22.87
2022-10-06T15:06:37.849Z,23.27
2022-10-06T15:09:39.720Z,23.62
2022-10-06T15:12:41.552Z,23.85
2022-10-06T15:15:43.401Z,23.97
2022-10-06T15:18:45.379Z,23.55
2022-10-06T15:21:47.187Z,23.05
2022-10-06T15:24:51.378Z,23.27
2022-10-06T15:28:12.185Z,23.55
2022-10-06T15:31:20.437Z,23.14
2022-10-06T15:34:25.305Z,22.33
2022-10-06T15:37:27.096Z,23.19
2022-10-06T15:40:29.065Z,22.81
2022-10-06T15:43:51.590Z,23.21
2022-10-06T15:46:54.425Z,22.62
2022-10-06T15:49:56.482Z,22.64
2022-10-06T15:52:58.330Z,21.25
2022-10-06T15:56:00.175Z,22.36
2022-10-06T15:59:02.576Z,22.13
2022-10-06T16:02:07.559Z,22.47
2022-10-06T16:05:09.671Z,21.51
2022-10-06T16:08:11.514Z,22.21
2022-10-06T16:11:13.811Z,22.18
2022-10-06T16:14:16.171Z,20.56
2022-10-06T16:17:18.148Z,21.60
2022-10-06T16:20:20.077Z,21.18
2022-10-06T16:23:22.285Z,21.73
2022-10-06T16:26:24.357Z,21.37
2022-10-06T16:29:26.429Z,21.08
2022-10-06T16:32:28.352Z,20.43
2022-10-06T16:35:30.206Z,21.22
2022-10-06T16:38:32.303Z,20.51
2022-10-06T16:41:34.131Z,20.49
2022-10-06T16:44:35.987Z,20.93
2022-10-06T16:47:37.995Z,21.02
2022-10-06T16:50:39.875Z,21.03
2022-10-06T16:53:42.582Z,21.18
2022-10-06T16:56:45.394Z,21.32
2022-10-06T16:59:47.258Z,20.65
2022-10-06T17:02:49.180Z,20.60
2022-10-06T17:05:51.116Z,21.23
2022-10-06T17:08:53.108Z,21.25
2022-10-06T17:12:03.039Z,21.07
2022-10-06T17:15:05.113Z,20.39
2022-10-06T17:18:06.991Z,20.21
2022-10-06T17:21:32.159Z,20.67
2022-10-06T17:24:32.096Z,20.55
2022-10-06T17:27:37.222Z,20.54
2022-10-06T17:30:50.997Z,20.23
2022-10-06T17:33:53.117Z,19.97
2022-10-06T17:36:55.094Z,20.39
2022-10-06T17:39:56.963Z,20.77
2022-10-06T17:42:59.056Z,20.70
2022-10-06T17:46:03.781Z,20.39
2022-10-06T17:49:09.602Z,20.92
2022-10-06T17:52:11.461Z,21.20
2022-10-06T17:55:14.922Z,20.91
2022-10-06T17:58:18.791Z,20.17
2022-10-06T18:01:21.429Z,20.52
2022-10-06T18:04:23.834Z,20.24
2022-10-06T18:07:25.680Z,20.78
2022-10-06T18:10:46.271Z,20.81
2022-10-06T18:13:49.587Z,20.75
2022-10-06T18:16:56.830Z,20.41
2022-10-06T18:19:58.859Z,20.84
2022-10-06T18:23:00.739Z,20.25
2022-10-06T18:26:06.529Z,19.74
2022-10-06T18:29:08.994Z,20.26
2022-10-06T18:38:55.491Z,19.20
2022-10-06T18:41:59.155Z,19.95
2022-10-06T18:45:19.510Z,19.63
2022-10-06T18:48:39.845Z,19.91
2022-10-06T18:51:42.891Z,19.44
2022-10-06T18:54:45.112Z,19.00
2022-10-06T18:57:47.237Z,19.65
2022-10-06T19:00:49.147Z,19.93
2022-10-06T19:03:50.964Z,20.17
2022-10-06T19:06:53.535Z,20.04
2022-10-06T19:09:55.360Z,19.82
2022-10-06T19:12:58.331Z,19.59
2022-10-06T19:16:00.138Z,19.15
2022-10-06T19:19:07.421Z,18.83
2022-10-06T19:22:10.419Z,18.86
2022-10-06T19:25:13.130Z,19.13
2022-10-06T19:28:15.743Z,19.02
2022-10-06T19:31:20.039Z,19.24
2022-10-06T19:34:22.879Z,19.07
2022-10-06T19:37:27.041Z,19.20
2022-10-06T19:40:28.946Z,19.06
2022-10-06T19:43:31.050Z,19.09
2022-10-06T19:46:32.874Z,19.01
2022-10-06T19:49:35.310Z,18.53
2022-10-06T19:52:37.614Z,19.15
2022-10-06T19:55:39.526Z,19.04
2022-10-06T19:58:41.315Z,18.60
2022-10-06T20:01:43.403Z,18.49
2022-10-06T20:04:45.495Z,18.81
2022-10-06T20:07:47.587Z,17.98
2022-10-06T20:10:49.498Z,18.93
2022-10-06T20:13:51.379Z,19.42
2022-10-06T20:16:53.769Z,19.49
2022-10-06T20:19:57.731Z,18.30
2022-10-06T20:22:59.910Z,17.79
2022-10-06T20:26:12.045Z,18.25
2022-10-06T20:29:14.635Z,18.56
2022-10-06T20:32:16.477Z,18.60
2022-10-06T20:35:18.253Z,18.62
2022-10-06T20:38:40.016Z,19.10
2022-10-06T20:41:42.325Z,18.14
2022-10-06T20:44:44.162Z,17.65
2022-10-06T20:47:47.937Z,18.77
2022-10-06T20:50:49.822Z,19.15
2022-10-06T20:53:52.057Z,18.96
2022-10-06T20:56:54.573Z,18.81
2022-10-06T20:59:56.441Z,17.64
2022-10-06T21:02:58.306Z,17.38
2022-10-06T21:06:00.396Z,17.26
2022-10-06T21:09:02.366Z,17.01
2022-10-06T21:12:05.005Z,17.48
2022-10-06T21:15:07.137Z,17.89
2022-10-06T21:18:09.040Z,18.36
2022-10-06T21:21:11.453Z,17.71
2022-10-06T21:24:13.316Z,17.66
2022-10-06T21:27:17.046Z,17.66
2022-10-06T21:30:18.849Z,17.94
2022-10-06T21:33:22.649Z,16.72
2022-10-06T21:36:25.395Z,16.92
2022-10-06T21:39:27.260Z,18.19
2022-10-06T21:42:29.066Z,18.19
2022-10-06T21:45:33.170Z,17.75
2022-10-06T21:48:35.148Z,17.79
2022-10-06T21:51:37.239Z,17.75
2022-10-06T21:54:39.065Z,16.71
2022-10-06T21:57:41.230Z,17.35
2022-10-06T22:00:43.195Z,17.58
2022-10-06T22:03:45.361Z,17.90
2022-10-06T22:06:50.115Z,16.59
2022-10-06T22:09:52.045Z,16.87
2022-10-06T22:12:53.905Z,17.31
2022-10-06T22:15:55.734Z,16.95
2022-10-06T22:18:57.949Z,16.75
2022-10-06T22:21:59.706Z,16.91
2022-10-06T22:25:01.564Z,17.54
2022-10-06T22:28:03.371Z,16.88
2022-10-06T22:31:08.815Z,17.75
2022-10-06T22:34:11.826Z,17.22
2022-10-06T22:37:13.803Z,17.35
2022-10-06T22:40:15.565Z,17.60
2022-10-06T22:43:17.361Z,17.62
2022-10-06T22:46:19.251Z,16.46
2022-10-06T22:49:21.239Z,16.86
2022-10-06T22:52:23.107Z,17.15
2022-10-06T22:55:24.940Z,17.62
2022-10-06T22:58:26.982Z,17.37
2022-10-06T23:01:29.387Z,16.90
2022-10-06T23:04:31.487Z,17.60
2022-10-06T23:07:33.367Z,17.25
2022-10-06T23:10:35.604Z,17.26
2022-10-06T23:13:37.590Z,16.94
2022-10-06T23:16:39.516Z,16.92
2022-10-06T23:19:41.403Z,17.09
2022-10-06T23:22:43.193Z,17.44
2022-10-06T23:25:45.514Z,17.41
2022-10-06T23:28:50.547Z,16.68
2022-10-06T23:31:52.392Z,16.48
2022-10-06T23:34:54.229Z,17.00
2022-10-06T23:37:56.044Z,15.68
2022-10-06T23:40:57.827Z,15.65
2022-10-06T23:43:59.749Z,15.66
2022-10-06T23:47:01.647Z,15.14
2022-10-06T23:50:03.541Z,16.44
2022-10-06T23:53:05.321Z,15.89
2022-10-06T23:56:07.395Z,16.09
2022-10-06T23:59:09.191Z,15.40
